Time;durP1;ratioP1;P1;durP2;ratioP2;P2;SDS_P1;SDS_P2;PMS_P1;PMS_P2;Temp;Humidity;BMP_temperature;BMP_pressure;BME280_temperature;BME280_humidity;BME280_pressure;Samples;Min_cycle;Max_cycle;Signal;HPM_P1;HPM_P2
2022/09/10 00:01:37;;;;;;;9.65;8.27;;;15.90;99.90;;;;;;5016032;28;20448;-68
2022/09/10 00:04:09;;;;;;;10.25;9.25;;;15.90;99.90;;;;;;5025568;28;20046;-68
2022/09/10 00:06:37;;;;;;;12.90;9.23;;;15.90;99.90;;;;;;5018016;28;20049;-68
2022/09/10 00:09:03;;;;;;;11.57;8.77;;;15.90;99.90;;;;;;5013405;28;20493;-68
2022/09/10 00:11:30;;;;;;;9.68;8.68;;;15.90;99.90;;;;;;5046613;28;20050;-68
2022/09/10 00:13:58;;;;;;;10.18;8.38;;;15.90;99.90;;;;;;5023637;28;20084;-68
2022/09/10 00:16:26;;;;;;;12.20;9.32;;;15.90;99.90;;;;;;5017365;28;20041;-68
2022/09/10 00:18:52;;;;;;;11.02;9.95;;;15.90;99.90;;;;;;5046645;28;20228;-68
2022/09/10 00:21:22;;;;;;;11.07;9.45;;;15.90;99.90;;;;;;5027506;28;20068;-68
2022/09/10 00:23:49;;;;;;;9.80;8.80;;;15.90;99.90;;;;;;5000142;28;20084;-68
2022/09/10 00:26:24;;;;;;;12.18;9.60;;;15.90;99.90;;;;;;5017054;28;20452;-68
2022/09/10 00:28:53;;;;;;;12.73;10.27;;;16.00;99.90;;;;;;5046018;28;20049;-68
2022/09/10 00:31:20;;;;;;;11.10;9.20;;;16.00;99.90;;;;;;5026690;28;20044;-68
2022/09/10 00:33:46;;;;;;;9.98;8.95;;;16.00;99.90;;;;;;5028980;28;20050;-68
2022/09/10 00:36:20;;;;;;;10.38;8.05;;;16.00;99.90;;;;;;5006724;28;20054;-68
2022/09/10 00:38:47;;;;;;;11.10;9.60;;;16.00;99.90;;;;;;5007103;28;20054;-68
2022/09/10 00:41:14;;;;;;;13.20;10.15;;;16.00;99.90;;;;;;5007209;28;20062;-68
2022/09/10 00:44:04;;;;;;;12.52;9.68;;;16.00;99.90;;;;;;4988576;28;20506;-68
2022/09/10 00:46:32;;;;;;;;;;;16.00;99.90;;;;;;4995645;28;20057;-68
2022/09/10 00:49:02;;;;;;;15.50;10.65;;;16.00;99.90;;;;;;4985600;28;19957;-68
2022/09/10 00:51:31;;;;;;;12.57;10.38;;;16.00;99.90;;;;;;5007544;28;20193;-68
2022/09/10 00:53:58;;;;;;;11.23;10.07;;;16.10;99.90;;;;;;4993923;28;20042;-68
2022/09/10 00:56:24;;;;;;;12.43;10.90;;;16.10;99.90;;;;;;5010218;28;20068;-67
2022/09/10 00:58:51;;;;;;;13.85;11.10;;;16.10;99.90;;;;;;5006747;28;20074;-67
2022/09/10 01:01:18;;;;;;;14.25;12.02;;;16.10;99.90;;;;;;5007258;28;20500;-68
2022/09/10 01:03:45;;;;;;;14.13;12.43;;;16.10;99.90;;;;;;4989344;28;20506;-67
2022/09/10 01:06:11;;;;;;;14.35;12.85;;;16.10;99.90;;;;;;4986372;28;20047;-68
2022/09/10 01:08:37;;;;;;;13.98;12.15;;;16.10;99.90;;;;;;5006513;28;20042;-68
2022/09/10 01:11:25;;;;;;;13.82;11.50;;;16.10;99.90;;;;;;4987658;28;20133;-68
2022/09/10 01:14:23;;;;;;;14.40;12.80;;;16.10;99.90;;;;;;4984518;28;20043;-68
2022/09/10 01:17:22;;;;;;;14.05;12.57;;;16.20;99.90;;;;;;4997021;28;20050;-68
2022/09/10 01:20:16;;;;;;;15.45;13.95;;;16.20;99.90;;;;;;4985549;28;20046;-68
2022/09/10 01:23:07;;;;;;;14.63;12.43;;;16.20;99.90;;;;;;4985294;28;20051;-68
2022/09/10 01:25:42;;;;;;;14.13;12.20;;;16.20;99.90;;;;;;4989211;28;20065;-68
2022/09/10 01:28:28;;;;;;;16.30;14.32;;;16.20;99.90;;;;;;5020338;28;20042;-68
2022/09/10 01:31:03;;;;;;;14.18;11.85;;;16.20;99.90;;;;;;4989555;28;20065;-68
2022/09/10 01:33:36;;;;;;;19.38;13.35;;;16.10;99.90;;;;;;4999180;28;20054;-68
2022/09/10 01:36:11;;;;;;;20.17;13.80;;;16.10;99.90;;;;;;4988731;28;20050;-67
2022/09/10 01:38:40;;;;;;;15.52;13.10;;;16.10;99.90;;;;;;5009178;28;20474;-68
2022/09/10 01:41:06;;;;;;;15.10;13.23;;;16.10;99.90;;;;;;4985544;28;20043;-68
2022/09/10 01:43:32;;;;;;;15.13;12.40;;;16.10;99.90;;;;;;5007178;28;20050;-68
2022/09/10 01:46:18;;;;;;;13.48;12.05;;;16.10;99.90;;;;;;5005493;28;20049;-68
2022/09/10 01:48:55;;;;;;;16.58;13.20;;;16.20;99.90;;;;;;4985168;28;20050;-68
2022/09/10 01:51:58;;;;;;;15.52;13.27;;;16.20;99.90;;;;;;4987534;28;20071;-68
2022/09/10 01:54:30;;;;;;;16.25;14.30;;;16.20;99.90;;;;;;5001293;28;20379;-68
2022/09/10 01:57:17;;;;;;;19.13;14.88;;;16.20;99.90;;;;;;4994211;28;20065;-67
2022/09/10 01:59:53;;;;;;;15.35;13.85;;;16.20;99.90;;;;;;4978345;28;20057;-68
2022/09/10 02:02:31;;;;;;;18.27;14.68;;;16.20;99.90;;;;;;4987872;28;20057;-68
2022/09/10 02:05:00;;;;;;;16.52;14.55;;;16.20;99.90;;;;;;5005946;28;20113;-68
2022/09/10 02:07:28;;;;;;;15.70;13.90;;;16.20;99.90;;;;;;5005222;28;20132;-68
2022/09/10 02:09:54;;;;;;;17.23;14.45;;;16.20;99.90;;;;;;4984325;28;20086;-68
2022/09/10 02:12:21;;;;;;;20.38;15.25;;;16.20;99.90;;;;;;5002832;28;20058;-68
2022/09/10 02:14:54;;;;;;;15.07;13.48;;;16.20;99.90;;;;;;4984058;28;20558;-68
2022/09/10 02:17:22;;;;;;;17.55;15.25;;;16.20;99.90;;;;;;5005192;28;20069;-68
2022/09/10 02:19:51;;;;;;;17.75;14.80;;;16.20;99.90;;;;;;4983799;28;20050;-68
2022/09/10 02:22:18;;;;;;;16.53;14.40;;;16.20;99.90;;;;;;4985932;28;20399;-67
2022/09/10 02:24:44;;;;;;;20.33;15.15;;;16.20;99.90;;;;;;5025159;28;20297;-68
2022/09/10 02:27:11;;;;;;;17.85;15.13;;;16.20;99.90;;;;;;4992129;28;20046;-68
2022/09/10 02:29:38;;;;;;;17.45;13.65;;;16.20;99.90;;;;;;4986858;28;20419;-68
2022/09/10 02:32:05;;;;;;;16.42;14.73;;;16.20;99.90;;;;;;4983189;28;20059;-68
2022/09/10 02:34:31;;;;;;;15.93;13.73;;;16.30;99.90;;;;;;4991461;28;20042;-68
2022/09/10 02:36:57;;;;;;;18.08;13.98;;;16.30;99.90;;;;;;5015943;28;20045;-68
2022/09/10 02:39:23;;;;;;;16.55;14.43;;;16.30;99.90;;;;;;5022968;28;20088;-68
2022/09/10 02:41:49;;;;;;;16.85;13.88;;;16.20;99.90;;;;;;5012688;28;20050;-68
2022/09/10 02:44:15;;;;;;;18.90;15.95;;;16.20;99.90;;;;;;4992044;28;20085;-68
2022/09/10 02:46:41;;;;;;;19.58;15.35;;;16.20;99.90;;;;;;5003283;28;20074;-68
2022/09/10 02:49:08;;;;;;;16.15;13.43;;;16.30;99.90;;;;;;5010447;28;20060;-67
2022/09/10 02:51:35;;;;;;;18.90;14.77;;;16.30;99.90;;;;;;5009340;28;20165;-68
2022/09/10 02:54:01;;;;;;;18.23;15.07;;;16.20;99.90;;;;;;5006237;28;20049;-67
2022/09/10 02:56:27;;;;;;;18.27;15.63;;;16.20;99.90;;;;;;5017212;28;20045;-68
2022/09/10 02:58:53;;;;;;;16.85;14.65;;;16.20;99.90;;;;;;5004062;28;20058;-68
2022/09/10 03:01:20;;;;;;;17.98;15.38;;;16.20;99.90;;;;;;5037291;28;20138;-68
2022/09/10 03:03:51;;;;;;;18.92;15.30;;;16.20;99.90;;;;;;5009558;28;20069;-68
2022/09/10 03:06:17;;;;;;;16.95;14.43;;;16.20;99.90;;;;;;5016840;28;20057;-68
2022/09/10 03:08:43;;;;;;;17.63;14.75;;;16.20;99.90;;;;;;5009198;28;20050;-68
2022/09/10 03:11:11;;;;;;;21.27;15.05;;;16.20;99.90;;;;;;4997639;28;20056;-68
2022/09/10 03:13:37;;;;;;;20.38;14.45;;;16.20;99.90;;;;;;5002945;28;20042;-68
2022/09/10 03:16:03;;;;;;;22.38;15.27;;;16.20;99.90;;;;;;5009673;28;20068;-68
2022/09/10 03:18:34;;;;;;;23.13;15.45;;;16.20;99.90;;;;;;5027701;28;20089;-68
2022/09/10 03:21:13;;;;;;;19.85;15.80;;;16.20;99.90;;;;;;5007683;28;20058;-68
2022/09/10 03:23:43;;;;;;;17.83;14.77;;;16.20;99.90;;;;;;4986703;28;20057;-68
2022/09/10 03:26:09;;;;;;;23.45;16.77;;;16.10;99.90;;;;;;5025130;28;20042;-67
2022/09/10 03:28:36;;;;;;;20.27;16.25;;;16.10;99.90;;;;;;5003754;28;20053;-67
2022/09/10 03:31:06;;;;;;;21.00;15.43;;;16.10;99.90;;;;;;5013858;28;20553;-68
2022/09/10 03:33:33;;;;;;;19.08;16.17;;;16.10;99.90;;;;;;5002617;28;20619;-68
2022/09/10 03:36:01;;;;;;;18.55;14.85;;;16.10;99.90;;;;;;5009841;28;20510;-68
2022/09/10 03:38:27;;;;;;;18.17;14.55;;;16.10;99.90;;;;;;5014091;28;20460;-68
2022/09/10 03:40:53;;;;;;;15.65;13.95;;;16.10;99.90;;;;;;5020665;28;20090;-67
2022/09/10 03:43:21;;;;;;;20.45;15.43;;;16.10;99.90;;;;;;5008700;28;20053;-67
2022/09/10 03:45:48;;;;;;;23.13;16.05;;;16.10;99.90;;;;;;5008732;28;20437;-68
2022/09/10 03:48:18;;;;;;;23.23;17.05;;;16.20;99.90;;;;;;5003650;28;20054;-67
2022/09/10 03:50:45;;;;;;;22.13;15.13;;;16.10;99.90;;;;;;5014847;28;20088;-68
2022/09/10 03:53:11;;;;;;;18.05;16.08;;;16.10;99.90;;;;;;5009449;28;20050;-68
2022/09/10 03:55:37;;;;;;;23.13;16.80;;;16.10;99.90;;;;;;5018019;28;20047;-68
2022/09/10 03:58:05;;;;;;;21.05;16.77;;;16.10;99.90;;;;;;5001354;28;20114;-68
2022/09/10 04:00:32;;;;;;;21.33;16.92;;;16.10;99.90;;;;;;5022852;28;20053;-68
2022/09/10 04:02:59;;;;;;;19.73;16.38;;;16.10;99.90;;;;;;4997902;28;20089;-68
2022/09/10 04:05:26;;;;;;;22.77;15.75;;;16.10;99.90;;;;;;5010684;28;20054;-68
2022/09/10 04:07:53;;;;;;;23.13;16.48;;;16.20;99.90;;;;;;5020716;28;20281;-68
2022/09/10 04:10:22;;;;;;;20.33;15.90;;;16.10;99.90;;;;;;5024083;28;20038;-67
2022/09/10 04:12:48;;;;;;;21.73;16.23;;;16.10;99.90;;;;;;5009389;28;20053;-68
2022/09/10 04:15:14;;;;;;;21.20;16.30;;;16.20;99.90;;;;;;5020894;28;20042;-68
2022/09/10 04:17:40;;;;;;;23.05;16.90;;;16.20;99.90;;;;;;5021817;28;20054;-67
2022/09/10 04:20:06;;;;;;;24.02;16.98;;;16.10;99.90;;;;;;5042298;28;20144;-67
2022/09/10 04:22:33;;;;;;;19.75;16.38;;;16.20;99.90;;;;;;5007913;28;20062;-68
2022/09/10 04:24:59;;;;;;;21.60;16.33;;;16.20;99.90;;;;;;5015709;28;20121;-68
2022/09/10 04:27:25;;;;;;;22.98;15.63;;;16.20;99.90;;;;;;5026592;28;20049;-68
2022/09/10 04:29:51;;;;;;;21.83;15.70;;;16.20;99.90;;;;;;5010885;28;20054;-68
2022/09/10 04:32:17;;;;;;;21.83;17.48;;;16.10;99.90;;;;;;5009812;28;20046;-68
2022/09/10 04:34:44;;;;;;;21.48;15.63;;;16.20;99.90;;;;;;5020821;28;20054;-68
2022/09/10 04:37:10;;;;;;;24.23;16.23;;;16.20;99.90;;;;;;5017634;28;20070;-68
2022/09/10 04:39:36;;;;;;;19.75;15.95;;;16.20;99.90;;;;;;5029317;28;20038;-68
2022/09/10 04:42:02;;;;;;;22.20;16.20;;;16.20;99.90;;;;;;5014533;28;20233;-68
2022/09/10 04:44:28;;;;;;;22.67;17.05;;;16.10;99.90;;;;;;5027300;28;20072;-68
2022/09/10 04:46:55;;;;;;;19.45;15.70;;;16.10;99.90;;;;;;5008379;28;20041;-68
2022/09/10 04:49:21;;;;;;;22.52;16.10;;;16.10;99.90;;;;;;5008818;28;20100;-67
2022/09/10 04:51:46;;;;;;;23.02;16.60;;;16.20;99.90;;;;;;5011734;28;20049;-68
2022/09/10 04:54:13;;;;;;;22.42;16.73;;;16.20;99.90;;;;;;5046994;28;20109;-68
2022/09/10 04:56:39;;;;;;;20.95;14.95;;;16.20;99.90;;;;;;5041659;28;20050;-68
2022/09/10 04:59:05;;;;;;;23.75;17.35;;;16.20;99.90;;;;;;5007839;28;20053;-68
2022/09/10 05:01:31;;;;;;;21.25;15.07;;;16.20;99.90;;;;;;5043563;28;20104;-68
2022/09/10 05:03:56;;;;;;;23.40;16.05;;;16.20;99.90;;;;;;5011506;28;20042;-68
2022/09/10 05:06:22;;;;;;;27.88;17.02;;;16.20;99.90;;;;;;5012727;28;20502;-68
2022/09/10 05:08:48;;;;;;;19.45;15.57;;;16.20;99.90;;;;;;5005789;28;20043;-68
2022/09/10 05:11:14;;;;;;;24.17;17.05;;;16.20;99.90;;;;;;5008373;28;20117;-68
2022/09/10 05:13:41;;;;;;;22.92;16.42;;;16.20;99.90;;;;;;5024742;28;20100;-68
2022/09/10 05:16:06;;;;;;;23.55;17.48;;;16.20;99.90;;;;;;5007921;28;20106;-68
2022/09/10 05:18:32;;;;;;;22.77;17.02;;;16.20;99.90;;;;;;5005789;28;20073;-68
2022/09/10 05:20:58;;;;;;;28.88;17.67;;;16.30;99.90;;;;;;5044252;28;20452;-68
2022/09/10 05:23:24;;;;;;;23.20;17.45;;;16.20;99.90;;;;;;5010546;28;20052;-68
2022/09/10 05:25:50;;;;;;;23.55;16.20;;;16.20;99.90;;;;;;5000752;28;20042;-68
2022/09/10 05:28:16;;;;;;;24.48;17.73;;;16.20;99.90;;;;;;5012810;28;20046;-68
2022/09/10 05:30:43;;;;;;;25.10;18.33;;;16.20;99.90;;;;;;4999708;28;20058;-68
2022/09/10 05:33:09;;;;;;;26.63;17.13;;;16.30;99.90;;;;;;5013342;28;20049;-68
2022/09/10 05:35:35;;;;;;;23.00;16.90;;;16.20;99.90;;;;;;5010119;28;20065;-67
2022/09/10 05:38:00;;;;;;;22.67;16.33;;;16.30;99.90;;;;;;4995450;28;20050;-68
2022/09/10 05:40:27;;;;;;;27.13;18.45;;;16.20;99.90;;;;;;5011705;28;20181;-68
2022/09/10 05:42:53;;;;;;;27.45;17.08;;;16.30;99.90;;;;;;5007045;28;20045;-68
2022/09/10 05:45:19;;;;;;;27.17;19.35;;;16.20;99.90;;;;;;5026460;28;20077;-68
2022/09/10 05:47:45;;;;;;;23.35;17.00;;;16.20;99.90;;;;;;4992535;28;20065;-68
2022/09/10 05:50:13;;;;;;;23.13;17.58;;;16.30;99.90;;;;;;5012429;28;20046;-68
2022/09/10 05:52:39;;;;;;;23.55;17.02;;;16.20;99.90;;;;;;5031522;28;20104;-68
2022/09/10 05:55:05;;;;;;;21.50;17.30;;;16.20;99.90;;;;;;5008554;28;20060;-67
2022/09/10 05:57:31;;;;;;;21.40;16.52;;;16.20;99.90;;;;;;4989138;28;20513;-67
2022/09/10 05:59:58;;;;;;;23.50;18.48;;;16.20;99.90;;;;;;5009548;28;20046;-68
2022/09/10 06:02:25;;;;;;;30.88;19.13;;;16.30;99.90;;;;;;5033364;28;20084;-67
2022/09/10 06:04:50;;;;;;;24.08;17.33;;;16.20;99.90;;;;;;5003889;28;20054;-68
2022/09/10 06:07:17;;;;;;;25.30;17.63;;;16.30;99.90;;;;;;5014149;28;20041;-68
2022/09/10 06:09:42;;;;;;;25.77;17.25;;;16.20;99.90;;;;;;5018339;28;20046;-67
2022/09/10 06:12:08;;;;;;;23.27;18.58;;;16.30;99.90;;;;;;5048762;28;20062;-67
2022/09/10 06:14:34;;;;;;;25.83;18.15;;;16.30;99.90;;;;;;5011470;28;20585;-68
2022/09/10 06:17:00;;;;;;;22.55;17.15;;;16.20;99.90;;;;;;5014615;28;20038;-68
2022/09/10 06:19:26;;;;;;;25.95;19.02;;;16.30;99.90;;;;;;5030762;28;20089;-67
2022/09/10 06:21:52;;;;;;;24.38;18.65;;;16.20;99.90;;;;;;5011816;28;20057;-67
2022/09/10 06:24:21;;;;;;;30.55;20.02;;;16.30;99.90;;;;;;5042161;28;20054;-67
2022/09/10 06:26:50;;;;;;;27.27;19.15;;;16.20;99.90;;;;;;5028847;28;20050;-68
2022/09/10 06:29:18;;;;;;;31.08;19.83;;;16.30;99.90;;;;;;5005888;28;20050;-67
2022/09/10 06:31:45;;;;;;;29.35;19.85;;;16.30;99.90;;;;;;5010672;28;20125;-68
2022/09/10 06:34:12;;;;;;;29.50;20.85;;;16.30;99.90;;;;;;5024488;28;20073;-67
2022/09/10 06:36:37;;;;;;;27.88;19.58;;;16.40;99.90;;;;;;5024772;28;20050;-68
2022/09/10 06:39:05;;;;;;;32.78;20.27;;;16.30;99.90;;;;;;5007268;28;20107;-68
2022/09/10 06:41:32;;;;;;;28.13;19.60;;;16.40;99.90;;;;;;5005825;28;20050;-68
2022/09/10 06:43:58;;;;;;;30.77;20.70;;;16.40;99.90;;;;;;5010566;28;20053;-68
2022/09/10 06:46:23;;;;;;;33.55;22.80;;;16.40;99.90;;;;;;5024462;28;20081;-67
2022/09/10 06:48:49;;;;;;;28.27;20.50;;;16.40;99.90;;;;;;5006632;28;20401;-68
2022/09/10 06:51:15;;;;;;;28.33;21.05;;;16.40;99.90;;;;;;5021464;28;20034;-67
2022/09/10 06:53:42;;;;;;;33.80;22.67;;;16.40;99.90;;;;;;5031886;28;20054;-67
2022/09/10 06:56:12;;;;;;;34.90;22.73;;;16.40;99.90;;;;;;4998359;28;20049;-67
2022/09/10 06:58:38;;;;;;;;;;;16.40;99.90;;;;;;5010152;28;20045;-68
2022/09/10 07:01:14;;;;;;;24.75;18.00;;;16.40;99.90;;;;;;5044083;28;19921;-69
2022/09/10 07:03:42;;;;;;;32.80;21.60;;;16.40;99.90;;;;;;5036434;28;20089;-70
2022/09/10 07:06:09;;;;;;;35.35;22.10;;;16.40;99.90;;;;;;5024949;28;20041;-68
2022/09/10 07:08:36;;;;;;;34.53;22.75;;;16.40;99.90;;;;;;5009829;28;20048;-70
2022/09/10 07:11:07;;;;;;;32.55;21.27;;;16.40;99.90;;;;;;5003385;28;20064;-69
2022/09/10 07:13:34;;;;;;;32.55;21.90;;;16.50;99.90;;;;;;5026493;28;20124;-69
2022/09/10 07:16:00;;;;;;;32.65;21.92;;;16.50;99.90;;;;;;5005324;28;20048;-68
2022/09/10 07:18:27;;;;;;;35.60;22.95;;;16.50;99.90;;;;;;5022968;28;20046;-69
2022/09/10 07:20:53;;;;;;;31.77;21.45;;;16.50;99.90;;;;;;5005839;28;20050;-70
2022/09/10 07:23:21;;;;;;;29.77;21.00;;;16.50;99.90;;;;;;4998156;28;20069;-69
2022/09/10 07:25:47;;;;;;;30.50;21.10;;;16.50;99.90;;;;;;5007038;28;20053;-70
2022/09/10 07:28:17;;;;;;;32.72;21.13;;;16.50;99.90;;;;;;5006150;28;20061;-70
2022/09/10 07:30:43;;;;;;;38.47;24.27;;;16.50;99.90;;;;;;5041872;28;20053;-70
2022/09/10 07:33:12;;;;;;;37.90;22.65;;;16.50;99.90;;;;;;5043189;28;20065;-70
2022/09/10 07:35:38;;;;;;;36.33;24.38;;;16.50;99.90;;;;;;5026382;28;20049;-70
2022/09/10 07:38:05;;;;;;;31.70;20.55;;;16.50;99.90;;;;;;5000172;28;20049;-70
2022/09/10 07:40:32;;;;;;;35.75;22.33;;;16.50;99.90;;;;;;5027838;28;20037;-69
2022/09/10 07:42:58;;;;;;;40.05;23.60;;;16.60;99.90;;;;;;5014660;28;20050;-70
2022/09/10 07:45:25;;;;;;;35.38;22.10;;;16.60;99.90;;;;;;5012851;28;20046;-69
2022/09/10 07:47:51;;;;;;;43.30;24.50;;;16.60;99.90;;;;;;5022553;28;20073;-70
2022/09/10 07:50:18;;;;;;;38.00;24.27;;;16.60;99.90;;;;;;5009676;28;20049;-69
2022/09/10 07:52:43;;;;;;;37.97;23.85;;;16.70;99.90;;;;;;5026938;28;20072;-69
2022/09/10 07:55:09;;;;;;;39.47;23.08;;;16.70;99.90;;;;;;5032729;28;20038;-70
2022/09/10 07:57:36;;;;;;;38.08;23.10;;;16.70;99.90;;;;;;5053570;28;20105;-69
2022/09/10 08:00:11;;;;;;;34.50;23.23;;;16.80;99.90;;;;;;5011523;28;20050;-69
2022/09/10 08:02:38;;;;;;;30.83;20.92;;;16.80;99.90;;;;;;5017766;28;20046;-68
2022/09/10 08:05:04;;;;;;;36.75;22.00;;;16.80;99.90;;;;;;5034629;28;20056;-69
2022/09/10 08:07:30;;;;;;;31.77;20.70;;;16.90;99.90;;;;;;5010743;28;20041;-70
2022/09/10 08:09:56;;;;;;;29.48;20.27;;;16.90;99.90;;;;;;5010103;28;20128;-69
2022/09/10 08:12:24;;;;;;;32.45;21.80;;;16.90;99.90;;;;;;5010494;28;20061;-68
2022/09/10 08:14:51;;;;;;;30.63;20.23;;;17.00;99.90;;;;;;5028106;28;20060;-69
2022/09/10 08:17:17;;;;;;;34.90;22.38;;;17.10;99.90;;;;;;5015756;28;20053;-68
2022/09/10 08:19:43;;;;;;;33.50;21.50;;;17.10;99.90;;;;;;5012933;28;20084;-68
2022/09/10 08:22:09;;;;;;;37.67;23.45;;;17.10;99.90;;;;;;5019782;28;20230;-68
2022/09/10 08:24:35;;;;;;;32.75;21.67;;;17.10;99.90;;;;;;5009018;28;20529;-68
2022/09/10 08:27:01;;;;;;;30.70;21.08;;;17.20;99.90;;;;;;5027441;28;20038;-68
2022/09/10 08:29:27;;;;;;;31.23;21.15;;;17.10;99.90;;;;;;5019844;28;20103;-68
2022/09/10 08:31:53;;;;;;;36.70;22.73;;;17.20;99.90;;;;;;5020050;28;20081;-68
2022/09/10 08:34:19;;;;;;;32.70;21.48;;;17.20;99.90;;;;;;5012771;28;20612;-68
2022/09/10 08:36:45;;;;;;;29.33;20.42;;;17.20;99.90;;;;;;4991391;28;20074;-69
2022/09/10 08:39:12;;;;;;;31.15;20.02;;;17.20;99.90;;;;;;4960727;28;20583;-72
2022/09/10 08:41:37;;;;;;;30.17;20.15;;;17.30;99.90;;;;;;4981690;28;20052;-69
2022/09/10 08:44:14;;;;;;;28.35;19.27;;;17.40;99.90;;;;;;4995299;28;20096;-69
2022/09/10 08:47:03;;;;;;;32.35;21.08;;;17.50;99.90;;;;;;4971476;28;20057;-70
2022/09/10 08:49:35;;;;;;;26.23;19.55;;;17.50;99.90;;;;;;4987931;28;20203;-71
2022/09/10 08:52:32;;;;;;;27.88;19.55;;;17.60;99.90;;;;;;4978541;28;20118;-71
2022/09/10 08:55:16;;;;;;;27.27;18.95;;;17.60;99.90;;;;;;4982148;28;20058;-68
2022/09/10 08:57:47;;;;;;;33.22;21.30;;;17.70;99.90;;;;;;4978892;28;20042;-68
2022/09/10 09:00:25;;;;;;;24.52;17.67;;;17.80;99.90;;;;;;4963868;28;20050;-68
2022/09/10 09:03:15;;;;;;;27.40;18.73;;;17.90;99.90;;;;;;5015609;28;20038;-68
2022/09/10 09:05:46;;;;;;;25.02;17.92;;;17.90;99.90;;;;;;4992692;28;20054;-67
2022/09/10 09:08:15;;;;;;;27.90;18.10;;;18.00;99.90;;;;;;4989684;28;20058;-68
2022/09/10 09:10:56;;;;;;;28.27;17.85;;;18.10;99.90;;;;;;4973789;28;20145;-68
2022/09/10 09:13:48;;;;;;;24.08;17.67;;;18.20;99.90;;;;;;4981386;28;20043;-67
2022/09/10 09:16:25;;;;;;;22.80;17.35;;;18.30;99.90;;;;;;4948423;29;20062;-67
2022/09/10 09:19:01;;;;;;;23.00;15.85;;;18.40;99.90;;;;;;4959780;28;20050;-67
2022/09/10 09:21:38;;;;;;;23.88;16.65;;;18.50;99.90;;;;;;4977497;28;20132;-67
2022/09/10 09:24:14;;;;;;;23.90;16.42;;;18.60;99.90;;;;;;4966150;28;20055;-67
2022/09/10 09:26:43;;;;;;;20.23;14.88;;;18.70;99.90;;;;;;4982089;28;20121;-67
2022/09/10 09:29:15;;;;;;;19.10;14.30;;;18.80;99.90;;;;;;4965437;28;20065;-67
2022/09/10 09:31:45;;;;;;;21.02;14.85;;;18.80;99.90;;;;;;4979211;28;20105;-67
2022/09/10 09:34:36;;;;;;;24.90;15.00;;;18.80;99.90;;;;;;4974580;28;20247;-67
2022/09/10 09:37:15;;;;;;;18.05;13.77;;;18.90;99.90;;;;;;4999743;28;20037;-67
2022/09/10 09:39:52;;;;;;;21.15;14.55;;;18.90;99.90;;;;;;4987097;28;20046;-67
2022/09/10 09:42:39;;;;;;;17.27;13.27;;;19.00;99.90;;;;;;4985906;28;20626;-67
2022/09/10 09:45:19;;;;;;;16.63;12.93;;;18.90;99.90;;;;;;4995375;28;20494;-67
2022/09/10 09:47:46;;;;;;;19.15;12.10;;;18.90;99.90;;;;;;4951441;28;20125;-67
2022/09/10 09:50:12;;;;;;;18.25;12.20;;;19.00;99.90;;;;;;4991607;28;20050;-68
2022/09/10 09:52:41;;;;;;;14.20;10.88;;;19.00;99.90;;;;;;5001473;28;20120;-67
2022/09/10 09:55:33;;;;;;;13.35;11.35;;;19.10;99.90;;;;;;5017337;28;20101;-66
2022/09/10 09:58:21;;;;;;;12.52;11.23;;;19.20;99.90;;;;;;4979284;28;20050;-66
2022/09/10 10:01:02;;;;;;;19.13;12.23;;;19.30;99.90;;;;;;4990327;28;20103;-66
2022/09/10 10:03:47;;;;;;;13.18;10.70;;;19.40;99.90;;;;;;5000739;28;20033;-67
2022/09/10 10:06:14;;;;;;;15.07;11.35;;;19.40;99.90;;;;;;5010340;28;20613;-67
2022/09/10 10:09:02;;;;;;;18.08;12.65;;;19.40;99.90;;;;;;5016512;28;20034;-68
2022/09/10 10:11:47;;;;;;;16.52;11.52;;;19.40;99.90;;;;;;4974426;28;20062;-67
2022/09/10 10:14:31;;;;;;;16.20;12.63;;;19.50;99.90;;;;;;5000981;28;20046;-67
2022/09/10 10:16:59;;;;;;;15.63;12.07;;;19.50;99.90;;;;;;5029453;28;20128;-67
2022/09/10 10:19:30;;;;;;;17.45;12.48;;;19.60;99.90;;;;;;4986125;28;20072;-66
2022/09/10 10:22:16;;;;;;;17.30;11.05;;;19.60;99.90;;;;;;5006277;28;20049;-67
2022/09/10 10:24:43;;;;;;;15.10;11.63;;;19.70;99.90;;;;;;5006939;28;20046;-67
2022/09/10 10:27:22;;;;;;;15.10;11.77;;;19.70;99.90;;;;;;5009386;28;20060;-67
2022/09/10 10:30:00;;;;;;;15.38;12.05;;;19.80;99.90;;;;;;5042093;28;20457;-66
2022/09/10 10:32:50;;;;;;;17.10;11.65;;;19.90;99.90;;;;;;4991549;28;20053;-66
2022/09/10 10:35:36;;;;;;;14.88;11.50;;;20.00;99.90;;;;;;5009496;28;20046;-67
2022/09/10 10:38:07;;;;;;;16.48;11.07;;;20.10;99.90;;;;;;5030863;28;20565;-68
2022/09/10 10:40:38;;;;;;;14.30;12.05;;;20.10;99.90;;;;;;5034164;28;20069;-66
2022/09/10 10:43:42;;;;;;;16.58;11.38;;;20.20;99.90;;;;;;5028893;28;20057;-66
2022/09/10 10:46:19;;;;;;;19.15;12.93;;;20.20;99.90;;;;;;5021161;28;20038;-67
2022/09/10 10:49:36;;;;;;;15.05;12.27;;;20.20;99.90;;;;;;5008096;28;20096;-66
2022/09/10 10:52:19;;;;;;;13.60;11.13;;;20.20;99.90;;;;;;4943190;28;20146;-66
2022/09/10 10:55:00;;;;;;;17.83;12.55;;;20.20;99.90;;;;;;4941413;28;20054;-66
2022/09/10 10:58:11;;;;;;;16.55;11.32;;;20.20;99.90;;;;;;4945320;28;20058;-66
2022/09/10 11:00:50;;;;;;;15.13;12.05;;;20.20;99.90;;;;;;4956034;28;20093;-66
2022/09/10 11:03:34;;;;;;;14.13;11.65;;;20.20;99.90;;;;;;4945602;28;20054;-66
2022/09/10 11:06:08;;;;;;;12.70;10.38;;;20.20;99.90;;;;;;4937295;29;20043;-66
2022/09/10 11:09:05;;;;;;;12.35;10.02;;;20.30;99.90;;;;;;4915194;28;20343;-66
2022/09/10 11:11:50;;;;;;;14.38;11.27;;;20.30;99.90;;;;;;4959181;28;20134;-66
2022/09/10 11:14:43;;;;;;;16.50;10.50;;;20.50;99.90;;;;;;4951594;28;20206;-66
2022/09/10 11:17:34;;;;;;;15.70;10.38;;;20.50;99.90;;;;;;4937027;28;20146;-66
2022/09/10 11:20:28;;;;;;;15.60;10.23;;;20.50;99.90;;;;;;4923705;28;20087;-66
2022/09/10 11:23:20;;;;;;;17.80;12.00;;;20.70;99.90;;;;;;4963365;28;20061;-66
2022/09/10 11:26:23;;;;;;;15.88;10.20;;;20.80;99.90;;;;;;5010539;28;20381;-65
2022/09/10 11:28:58;;;;;;;13.27;9.85;;;20.90;99.90;;;;;;5008023;28;20132;-66
2022/09/10 11:31:32;;;;;;;13.48;9.60;;;21.00;99.90;;;;;;5008573;28;20061;-66
2022/09/10 11:34:12;;;;;;;12.23;9.52;;;21.20;99.90;;;;;;4996297;28;20049;-65
2022/09/10 11:36:46;;;;;;;;;;;21.40;99.90;;;;;;5011726;28;20054;-66
2022/09/10 11:39:22;;;;;;;10.55;8.82;;;21.40;99.90;;;;;;5017223;28;20180;-66
2022/09/10 11:41:53;;;;;;;10.55;9.13;;;21.50;99.90;;;;;;4998780;28;20061;-66
2022/09/10 11:45:06;;;;;;;10.20;8.20;;;21.60;99.90;;;;;;5036711;28;20068;-66
2022/09/10 11:47:38;;;;;;;12.95;8.80;;;21.60;99.90;;;;;;4951263;28;20444;-66
2022/09/10 11:50:14;;;;;;;12.38;8.40;;;21.70;99.90;;;;;;4934113;29;20326;-66
2022/09/10 11:52:40;;;;;;;11.70;8.45;;;21.70;99.90;;;;;;4929540;29;20063;-65
2022/09/10 11:55:14;;;;;;;10.38;7.45;;;21.70;99.90;;;;;;4918351;29;20071;-66
2022/09/10 11:57:58;;;;;;;13.13;8.60;;;21.70;99.90;;;;;;4928601;28;20083;-66
2022/09/10 12:00:24;;;;;;;10.18;8.20;;;21.60;99.90;;;;;;4939597;28;20071;-66
2022/09/10 12:03:14;;;;;;;12.00;7.68;;;21.70;99.90;;;;;;4955088;28;20055;-66
2022/09/10 12:06:09;;;;;;;8.38;6.55;;;21.70;99.90;;;;;;4947013;28;20111;-66
2022/09/10 12:08:51;;;;;;;11.43;7.50;;;21.80;99.90;;;;;;4920190;28;20051;-66
2022/09/10 12:11:38;;;;;;;9.65;6.30;;;21.90;99.90;;;;;;4927691;29;20425;-66
2022/09/10 12:14:14;;;;;;;9.18;6.85;;;22.00;99.90;;;;;;4938189;28;20062;-66
2022/09/10 12:16:42;;;;;;;9.75;7.88;;;22.10;99.90;;;;;;4944292;29;20538;-65
2022/09/10 12:19:25;;;;;;;11.48;7.00;;;22.10;99.90;;;;;;5030841;28;20088;-65
2022/09/10 12:22:00;;;;;;;11.13;7.43;;;22.30;99.90;;;;;;5004035;28;20070;-66
2022/09/10 12:24:38;;;;;;;10.52;6.68;;;22.40;99.90;;;;;;5034268;28;20430;-67
2022/09/10 12:27:05;;;;;;;13.82;8.77;;;22.60;99.90;;;;;;5005505;28;20472;-65
2022/09/10 12:29:37;;;;;;;9.23;7.30;;;22.60;99.90;;;;;;5008087;28;20599;-66
2022/09/10 12:32:17;;;;;;;10.90;8.88;;;22.70;99.90;;;;;;5001152;28;20054;-66
2022/09/10 12:34:47;;;;;;;10.60;7.55;;;22.70;99.90;;;;;;4998769;28;20058;-66
2022/09/10 12:37:27;;;;;;;11.18;7.30;;;22.60;99.90;;;;;;5032652;28;20062;-65
2022/09/10 12:40:24;;;;;;;11.35;7.07;;;22.70;99.90;;;;;;4976303;28;20085;-65
2022/09/10 12:42:50;;;;;;;10.45;7.53;;;22.70;99.90;;;;;;5012525;28;20046;-65
2022/09/10 12:45:55;;;;;;;9.40;7.60;;;22.70;99.90;;;;;;5012241;28;20477;-66
2022/09/10 12:48:21;;;;;;;12.20;7.40;;;22.60;99.90;;;;;;4991613;28;20042;-65
2022/09/10 12:50:55;;;;;;;9.85;7.55;;;22.70;99.90;;;;;;5040078;28;20049;-66
2022/09/10 12:53:49;;;;;;;11.73;7.30;;;22.70;99.90;;;;;;5021273;28;20034;-66
2022/09/10 12:56:44;;;;;;;9.35;6.53;;;22.70;99.90;;;;;;5024281;28;20070;-66